Time;durP1;ratioP1;P1;durP2;ratioP2;P2;SDS_P1;SDS_P2;PMS_P1;PMS_P2;Temp;Humidity;BMP_temperature;BMP_pressure;BME280_temperature;BME280_humidity;BME280_pressure;Samples;Min_cycle;Max_cycle;Signal;HPM_P1;HPM_P2
2023/04/07 00:00:07;;;;;;;24.08;18.45;;;7.60;99.90;;;;;;5133226;28;20035;-57
2023/04/07 00:02:32;;;;;;;25.02;18.60;;;7.50;99.90;;;;;;5133105;28;20109;-57
2023/04/07 00:04:58;;;;;;;25.85;18.77;;;7.60;99.90;;;;;;5133216;28;20429;-56
2023/04/07 00:07:24;;;;;;;26.17;19.15;;;7.60;99.90;;;;;;5114202;28;20054;-57
2023/04/07 00:09:50;;;;;;;27.23;19.50;;;7.50;99.90;;;;;;5133310;28;20043;-57
2023/04/07 00:12:15;;;;;;;24.40;19.35;;;7.70;99.90;;;;;;5133006;28;20088;-57
2023/04/07 00:14:41;;;;;;;25.13;19.48;;;7.60;99.90;;;;;;5133083;28;20487;-57
2023/04/07 00:17:07;;;;;;;25.35;19.05;;;7.60;99.90;;;;;;5113990;28;20047;-57
2023/04/07 00:19:34;;;;;;;26.00;19.05;;;7.60;99.90;;;;;;5132653;27;20051;-57
2023/04/07 00:22:00;;;;;;;27.00;20.38;;;7.50;99.90;;;;;;5135651;27;20046;-57
2023/04/07 00:24:26;;;;;;;24.63;19.33;;;7.60;99.90;;;;;;5137345;27;20046;-58
2023/04/07 00:26:51;;;;;;;28.67;21.67;;;7.50;99.90;;;;;;5137023;27;20035;-57
2023/04/07 00:29:17;;;;;;;25.63;20.40;;;7.50;99.90;;;;;;5118966;27;20041;-57
2023/04/07 00:31:43;;;;;;;26.55;20.88;;;7.60;99.90;;;;;;5118146;27;20480;-57
2023/04/07 00:34:08;;;;;;;25.92;20.80;;;7.60;99.90;;;;;;5136768;27;20043;-57
2023/04/07 00:36:34;;;;;;;28.85;20.92;;;7.60;99.90;;;;;;5146177;27;20043;-57
2023/04/07 00:39:00;;;;;;;31.75;22.38;;;7.50;99.90;;;;;;5139236;27;20042;-58
2023/04/07 00:41:25;;;;;;;31.80;23.27;;;7.60;99.90;;;;;;5157359;27;20408;-58
2023/04/07 00:43:51;;;;;;;27.00;20.80;;;7.50;99.90;;;;;;5157122;27;20528;-56
2023/04/07 00:46:20;;;;;;;29.70;23.45;;;7.60;99.90;;;;;;5138654;27;20042;-57
2023/04/07 00:48:46;;;;;;;29.73;22.52;;;7.50;99.90;;;;;;5157307;27;20034;-57
2023/04/07 00:51:13;;;;;;;35.10;24.35;;;7.60;99.90;;;;;;5157362;27;20388;-57
2023/04/07 00:53:39;;;;;;;32.80;23.02;;;7.60;99.90;;;;;;5137395;27;20377;-57
2023/04/07 00:56:05;;;;;;;32.20;24.10;;;7.60;99.90;;;;;;5136235;27;20046;-57
2023/04/07 00:58:31;;;;;;;37.75;24.63;;;7.60;99.90;;;;;;5136247;27;20111;-57
2023/04/07 01:01:05;;;;;;;35.28;23.88;;;7.60;99.90;;;;;;5136132;27;20393;-57
2023/04/07 01:03:57;;;;;;;31.98;23.65;;;7.50;99.90;;;;;;5136156;27;20042;-57
2023/04/07 01:06:28;;;;;;;33.03;24.08;;;7.60;99.90;;;;;;5122375;27;20043;-57
2023/04/07 01:09:06;;;;;;;32.03;23.90;;;7.60;99.90;;;;;;5136066;27;20047;-57
2023/04/07 01:11:56;;;;;;;36.42;24.05;;;7.50;99.90;;;;;;5118059;27;20385;-57
2023/04/07 01:14:23;;;;;;;32.00;23.58;;;7.40;99.90;;;;;;5136460;27;20493;-57
2023/04/07 01:16:51;;;;;;;36.88;25.70;;;7.40;99.90;;;;;;5139506;27;20129;-58
2023/04/07 01:19:36;;;;;;;35.65;26.25;;;7.40;99.90;;;;;;5137851;27;20050;-56
2023/04/07 01:22:09;;;;;;;34.83;25.08;;;7.40;99.90;;;;;;5151772;27;20027;-57
2023/04/07 01:24:44;;;;;;;39.08;26.33;;;7.40;99.90;;;;;;5135941;27;20035;-58
2023/04/07 01:27:35;;;;;;;34.25;24.98;;;7.40;99.90;;;;;;5135714;27;20503;-57
2023/04/07 01:30:02;;;;;;;34.97;26.17;;;7.40;99.90;;;;;;5135774;27;20392;-57
2023/04/07 01:32:30;;;;;;;35.78;25.98;;;7.40;99.90;;;;;;5115889;27;20047;-57
2023/04/07 01:34:57;;;;;;;35.78;25.65;;;7.50;99.90;;;;;;5135748;27;20385;-57
2023/04/07 01:37:25;;;;;;;36.10;26.33;;;7.50;99.90;;;;;;5117068;27;20035;-57
2023/04/07 01:39:51;;;;;;;36.13;26.27;;;7.30;99.90;;;;;;5116975;27;20496;-58
2023/04/07 01:42:18;;;;;;;37.33;25.80;;;7.50;99.90;;;;;;5135202;27;20037;-58
2023/04/07 01:44:45;;;;;;;33.70;25.10;;;7.40;99.90;;;;;;5117211;27;20038;-56
2023/04/07 01:47:12;;;;;;;36.15;26.75;;;7.30;99.90;;;;;;5140266;27;20058;-56
2023/04/07 01:49:40;;;;;;;34.78;25.50;;;7.50;99.90;;;;;;5156086;27;20055;-57
2023/04/07 01:52:06;;;;;;;39.60;26.38;;;7.50;99.90;;;;;;5133461;27;20043;-56
2023/04/07 01:54:34;;;;;;;38.42;25.60;;;7.40;99.90;;;;;;5135312;27;20031;-57
2023/04/07 01:57:00;;;;;;;33.65;25.52;;;7.50;99.90;;;;;;5135102;27;20047;-56
2023/04/07 01:59:26;;;;;;;38.15;26.20;;;7.30;99.90;;;;;;5116837;27;20047;-56
2023/04/07 02:01:52;;;;;;;35.17;26.85;;;7.30;99.90;;;;;;5134938;27;20035;-56
2023/04/07 02:04:28;;;;;;;38.38;26.20;;;7.30;99.90;;;;;;5135191;27;20035;-56
2023/04/07 02:06:58;;;;;;;35.95;25.05;;;7.30;99.90;;;;;;5099834;27;20075;-57
2023/04/07 02:09:26;;;;;;;34.85;26.80;;;7.50;99.90;;;;;;5135047;27;20088;-57
2023/04/07 02:11:54;;;;;;;31.33;24.90;;;7.50;99.90;;;;;;5116783;27;20043;-56
2023/04/07 02:14:21;;;;;;;42.37;27.63;;;7.50;99.90;;;;;;5135136;27;20082;-57
2023/04/07 02:16:48;;;;;;;34.45;25.27;;;7.50;99.90;;;;;;5116552;27;20046;-57
2023/04/07 02:19:14;;;;;;;36.38;25.60;;;7.40;99.90;;;;;;5155375;27;20058;-57
2023/04/07 02:21:41;;;;;;;37.70;26.63;;;7.50;99.90;;;;;;5155332;27;20043;-57
2023/04/07 02:24:07;;;;;;;38.28;26.65;;;7.50;99.90;;;;;;5155047;27;20086;-58
2023/04/07 02:26:36;;;;;;;33.08;24.85;;;7.40;99.90;;;;;;5155083;27;20038;-57
2023/04/07 02:29:03;;;;;;;35.25;25.80;;;7.50;99.90;;;;;;5155275;27;20038;-57
2023/04/07 02:31:29;;;;;;;36.42;26.35;;;7.50;99.90;;;;;;5155481;27;20039;-57
2023/04/07 02:33:54;;;;;;;36.33;27.23;;;7.50;99.90;;;;;;5155110;27;20045;-57
2023/04/07 02:36:20;;;;;;;36.05;25.38;;;7.50;99.90;;;;;;5136465;27;20087;-57
2023/04/07 02:38:46;;;;;;;34.80;26.55;;;7.40;99.90;;;;;;5135774;27;20171;-57
2023/04/07 02:41:11;;;;;;;34.95;26.58;;;7.30;99.90;;;;;;5154674;27;20046;-56
2023/04/07 02:43:37;;;;;;;37.03;27.05;;;7.40;99.90;;;;;;5136365;27;20053;-58
2023/04/07 02:46:03;;;;;;;38.05;26.70;;;7.30;99.90;;;;;;5155332;27;20033;-57
2023/04/07 02:48:29;;;;;;;35.95;25.45;;;7.40;99.90;;;;;;5141836;27;20496;-56
2023/04/07 02:50:54;;;;;;;39.20;25.98;;;7.40;99.90;;;;;;5115832;27;20035;-57
2023/04/07 02:53:20;;;;;;;36.10;26.45;;;7.30;99.90;;;;;;5145264;27;20033;-57
2023/04/07 02:55:46;;;;;;;32.90;24.85;;;7.50;99.90;;;;;;5154697;27;20434;-57
2023/04/07 02:58:11;;;;;;;33.88;25.08;;;7.40;99.90;;;;;;5155055;27;20361;-57
2023/04/07 03:00:37;;;;;;;35.72;27.65;;;7.40;99.90;;;;;;5154773;27;20477;-57
2023/04/07 03:03:03;;;;;;;35.22;26.55;;;7.50;99.90;;;;;;5154701;27;20450;-57
2023/04/07 03:05:28;;;;;;;37.72;26.83;;;7.50;99.90;;;;;;5154582;27;20456;-57
2023/04/07 03:07:54;;;;;;;37.72;27.30;;;7.40;99.90;;;;;;5135969;27;20134;-56
2023/04/07 03:10:19;;;;;;;36.65;27.33;;;7.50;99.90;;;;;;5135194;27;20050;-56
2023/04/07 03:12:45;;;;;;;36.78;27.20;;;7.50;99.90;;;;;;5154703;27;20042;-56
2023/04/07 03:15:11;;;;;;;37.20;27.33;;;7.40;99.90;;;;;;5154562;27;20045;-56
2023/04/07 03:17:36;;;;;;;38.25;26.80;;;7.40;99.90;;;;;;5140565;27;20045;-57
2023/04/07 03:20:02;;;;;;;37.20;27.63;;;7.30;99.90;;;;;;5115213;27;20405;-57
2023/04/07 03:22:28;;;;;;;35.60;26.52;;;7.40;99.90;;;;;;5126239;27;20070;-56
2023/04/07 03:24:54;;;;;;;36.13;27.33;;;7.40;99.90;;;;;;5154426;27;20035;-57
2023/04/07 03:27:19;;;;;;;38.40;27.40;;;7.40;99.90;;;;;;5154442;27;20031;-56
2023/04/07 03:29:45;;;;;;;35.47;26.42;;;7.40;99.90;;;;;;5118683;27;20125;-56
2023/04/07 03:32:11;;;;;;;38.50;26.83;;;7.40;99.90;;;;;;5135657;27;20122;-56
2023/04/07 03:34:37;;;;;;;36.80;27.55;;;7.30;99.90;;;;;;5154087;27;20167;-56
2023/04/07 03:37:03;;;;;;;38.95;26.02;;;7.40;99.90;;;;;;5153868;27;20031;-56
2023/04/07 03:39:28;;;;;;;32.95;25.83;;;7.40;99.90;;;;;;5118227;27;20066;-57
2023/04/07 03:41:55;;;;;;;36.15;25.67;;;7.40;99.90;;;;;;5153961;27;20034;-57
2023/04/07 03:44:20;;;;;;;35.90;25.95;;;7.40;99.90;;;;;;5135434;27;20172;-58
2023/04/07 03:46:47;;;;;;;36.08;25.48;;;7.30;99.90;;;;;;5153898;27;20109;-58
2023/04/07 03:49:13;;;;;;;37.38;26.10;;;7.30;99.90;;;;;;5153613;27;20031;-57
2023/04/07 03:51:39;;;;;;;36.50;26.08;;;7.50;99.90;;;;;;5153863;27;20121;-57
2023/04/07 03:54:05;;;;;;;34.72;25.52;;;7.50;99.90;;;;;;5153751;27;20111;-56
2023/04/07 03:56:30;;;;;;;36.30;26.05;;;7.30;99.90;;;;;;5137384;27;20039;-56
2023/04/07 03:58:56;;;;;;;36.20;26.52;;;7.30;99.90;;;;;;5158238;27;20539;-56
2023/04/07 04:01:22;;;;;;;38.72;27.08;;;7.30;99.90;;;;;;5158210;27;20118;-56
2023/04/07 04:03:49;;;;;;;37.15;25.42;;;7.30;99.90;;;;;;5122053;27;20506;-56
2023/04/07 04:06:15;;;;;;;34.35;25.38;;;7.30;99.90;;;;;;5139639;27;20042;-56
2023/04/07 04:08:40;;;;;;;38.65;26.15;;;7.40;99.90;;;;;;5139565;27;20038;-57
2023/04/07 04:11:06;;;;;;;35.58;25.00;;;7.40;99.90;;;;;;5139885;27;20079;-56
2023/04/07 04:13:31;;;;;;;36.47;25.60;;;7.30;99.90;;;;;;5158029;27;20038;-56
2023/04/07 04:15:57;;;;;;;35.78;25.92;;;7.40;99.90;;;;;;5154924;27;20066;-57
2023/04/07 04:18:23;;;;;;;32.17;24.95;;;7.40;99.90;;;;;;5157563;27;20078;-58
2023/04/07 04:20:49;;;;;;;35.95;25.42;;;7.20;99.90;;;;;;5138214;27;20043;-57
2023/04/07 04:23:15;;;;;;;34.10;23.95;;;7.40;99.90;;;;;;5138643;27;20035;-57
2023/04/07 04:25:40;;;;;;;36.25;25.23;;;7.40;99.90;;;;;;5157334;27;20464;-58
2023/04/07 04:28:06;;;;;;;32.75;24.30;;;7.20;99.90;;;;;;5157517;27;20035;-57
2023/04/07 04:30:32;;;;;;;34.58;24.55;;;7.30;99.90;;;;;;5157361;27;20495;-57
2023/04/07 04:32:58;;;;;;;37.92;25.60;;;7.20;99.90;;;;;;5138468;27;20043;-57
2023/04/07 04:35:24;;;;;;;32.65;23.80;;;7.40;99.90;;;;;;5157612;27;20038;-57
2023/04/07 04:37:50;;;;;;;32.15;23.45;;;7.20;99.90;;;;;;5157148;27;20054;-57
2023/04/07 04:40:16;;;;;;;33.20;23.83;;;7.30;99.90;;;;;;5157205;27;20393;-57
2023/04/07 04:42:41;;;;;;;31.20;23.25;;;7.20;99.90;;;;;;5156968;27;20064;-57
2023/04/07 04:45:07;;;;;;;34.85;23.80;;;7.30;99.90;;;;;;5157445;27;20027;-57
2023/04/07 04:47:33;;;;;;;32.65;24.20;;;7.30;99.90;;;;;;5157070;27;20436;-57
2023/04/07 04:49:59;;;;;;;31.65;23.52;;;7.30;99.90;;;;;;5156925;27;20187;-58
2023/04/07 04:52:26;;;;;;;33.78;23.23;;;7.20;99.90;;;;;;5157072;27;20373;-57
2023/04/07 04:54:52;;;;;;;35.63;23.33;;;7.20;99.90;;;;;;5157246;27;20042;-57
2023/04/07 04:57:18;;;;;;;31.88;22.65;;;7.20;99.90;;;;;;5157165;27;20042;-57
2023/04/07 04:59:43;;;;;;;30.48;21.83;;;7.30;99.90;;;;;;5157036;27;20599;-57
2023/04/07 05:02:09;;;;;;;28.88;21.15;;;7.30;99.90;;;;;;5156980;27;20066;-57
2023/04/07 05:04:35;;;;;;;30.13;22.17;;;7.40;99.90;;;;;;5156734;27;20034;-57
2023/04/07 05:07:01;;;;;;;30.35;21.33;;;7.20;99.90;;;;;;5156613;27;20042;-57
2023/04/07 05:09:26;;;;;;;30.20;22.08;;;7.30;99.90;;;;;;5156590;27;20450;-57
2023/04/07 05:11:52;;;;;;;31.05;22.27;;;7.20;99.90;;;;;;5156678;27;20066;-57
2023/04/07 05:14:18;;;;;;;27.80;20.70;;;7.20;99.90;;;;;;5157113;27;20038;-57
2023/04/07 05:16:43;;;;;;;28.40;21.00;;;7.20;99.90;;;;;;5137637;27;20035;-57
2023/04/07 05:19:09;;;;;;;29.83;22.02;;;7.20;99.90;;;;;;5144532;27;20062;-57
2023/04/07 05:21:35;;;;;;;28.88;21.00;;;7.20;99.90;;;;;;5135542;27;20047;-58
2023/04/07 05:24:01;;;;;;;29.63;21.35;;;7.30;99.90;;;;;;5127118;27;20038;-57
2023/04/07 05:26:26;;;;;;;27.52;20.67;;;7.30;99.90;;;;;;5156348;27;20039;-57
2023/04/07 05:28:52;;;;;;;26.48;20.23;;;7.30;99.90;;;;;;5156547;27;20087;-57
2023/04/07 05:31:18;;;;;;;27.83;20.67;;;7.20;99.90;;;;;;5156192;27;20511;-58
2023/04/07 05:33:43;;;;;;;29.75;21.42;;;7.30;99.90;;;;;;5156091;27;20039;-58
2023/04/07 05:36:09;;;;;;;27.75;20.05;;;7.30;99.90;;;;;;5156478;27;20046;-57
2023/04/07 05:38:34;;;;;;;28.05;21.10;;;7.30;99.90;;;;;;5156418;27;20049;-57
2023/04/07 05:41:00;;;;;;;27.23;20.05;;;7.30;99.90;;;;;;5137460;27;20035;-58
2023/04/07 05:43:26;;;;;;;26.63;20.35;;;7.30;99.90;;;;;;5156053;27;20031;-57
2023/04/07 05:45:51;;;;;;;27.15;20.70;;;7.30;99.90;;;;;;5155827;27;20062;-57
2023/04/07 05:48:17;;;;;;;29.17;20.77;;;7.40;99.90;;;;;;5136645;27;20034;-59
2023/04/07 05:50:43;;;;;;;28.88;21.50;;;7.30;99.90;;;;;;5156085;27;20043;-59
2023/04/07 05:53:08;;;;;;;26.27;20.25;;;7.30;99.90;;;;;;5155763;27;20034;-57
2023/04/07 05:55:35;;;;;;;25.67;19.10;;;7.20;99.90;;;;;;5155950;27;20125;-57
2023/04/07 05:58:01;;;;;;;25.40;20.60;;;7.40;99.90;;;;;;5136772;27;20050;-57
2023/04/07 06:00:26;;;;;;;27.85;20.95;;;7.40;99.90;;;;;;5155721;27;20066;-57
2023/04/07 06:02:52;;;;;;;27.33;20.77;;;7.20;99.90;;;;;;5137229;27;20511;-57
2023/04/07 06:05:18;;;;;;;29.20;21.00;;;7.30;99.90;;;;;;5136671;27;20073;-57
2023/04/07 06:07:44;;;;;;;27.65;21.05;;;7.30;99.90;;;;;;5155302;27;20082;-57
2023/04/07 06:10:10;;;;;;;24.58;19.50;;;7.30;99.90;;;;;;5155524;27;20039;-57
2023/04/07 06:12:35;;;;;;;27.52;20.40;;;7.30;99.90;;;;;;5155545;27;20031;-58
2023/04/07 06:15:01;;;;;;;26.80;19.70;;;7.30;99.90;;;;;;5155464;27;20112;-57
2023/04/07 06:17:27;;;;;;;26.70;20.20;;;7.30;99.90;;;;;;5155459;27;20790;-57
2023/04/07 06:19:52;;;;;;;25.45;19.65;;;7.40;99.90;;;;;;5154562;27;20052;-57
2023/04/07 06:22:18;;;;;;;24.50;19.17;;;7.30;99.90;;;;;;5155630;27;20038;-58
2023/04/07 06:24:44;;;;;;;28.23;20.38;;;7.40;99.90;;;;;;5155158;27;20035;-58
2023/04/07 06:27:10;;;;;;;26.17;19.85;;;7.40;99.90;;;;;;5155275;27;20043;-57
2023/04/07 06:29:36;;;;;;;24.17;18.70;;;7.50;99.90;;;;;;5154985;27;20043;-58
2023/04/07 06:32:01;;;;;;;23.45;18.35;;;7.40;99.90;;;;;;5154953;27;20074;-58
2023/04/07 06:34:27;;;;;;;25.05;18.42;;;7.40;99.90;;;;;;5154862;27;20039;-58
2023/04/07 06:36:52;;;;;;;25.75;20.23;;;7.40;99.90;;;;;;5155111;27;20384;-57
2023/04/07 06:39:18;;;;;;;28.15;20.17;;;7.40;99.90;;;;;;5143932;27;20382;-57
2023/04/07 06:41:45;;;;;;;25.98;19.55;;;7.40;99.90;;;;;;5134364;27;20035;-58
2023/04/07 06:44:12;;;;;;;25.85;19.20;;;7.50;99.90;;;;;;5134074;27;20048;-58
2023/04/07 06:46:38;;;;;;;25.65;18.50;;;7.50;99.90;;;;;;5098611;27;20035;-57
2023/04/07 06:49:04;;;;;;;24.10;18.73;;;7.50;99.90;;;;;;5141937;27;20083;-57
2023/04/07 06:51:31;;;;;;;23.83;19.05;;;7.60;99.90;;;;;;5154778;27;20039;-58
2023/04/07 06:53:56;;;;;;;29.33;19.27;;;7.60;99.90;;;;;;5135982;27;20074;-58
2023/04/07 06:56:22;;;;;;;24.92;19.05;;;7.60;99.90;;;;;;5154632;27;20070;-57
2023/04/07 06:58:49;;;;;;;25.70;19.65;;;7.70;99.90;;;;;;5154585;27;20114;-57
2023/04/07 07:01:15;;;;;;;25.67;19.27;;;7.60;99.90;;;;;;5154625;27;20038;-57
2023/04/07 07:03:41;;;;;;;26.10;18.45;;;7.70;99.90;;;;;;5154395;27;20031;-57
2023/04/07 07:06:07;;;;;;;23.67;18.08;;;7.70;99.90;;;;;;5154631;27;20090;-57
2023/04/07 07:08:32;;;;;;;22.85;17.30;;;7.70;99.90;;;;;;5154729;27;20504;-57
2023/04/07 07:10:58;;;;;;;24.83;18.35;;;7.70;99.90;;;;;;5154771;27;20035;-58
2023/04/07 07:13:25;;;;;;;28.77;18.98;;;7.80;99.90;;;;;;5154403;27;20117;-57
2023/04/07 07:15:51;;;;;;;26.75;19.85;;;7.80;99.90;;;;;;5154161;27;20061;-57
2023/04/07 07:18:18;;;;;;;20.38;16.48;;;7.90;99.90;;;;;;5153204;27;20481;-57
2023/04/07 07:20:44;;;;;;;23.02;18.38;;;7.80;99.90;;;;;;5133427;27;20073;-57
2023/04/07 07:23:09;;;;;;;23.25;18.27;;;7.90;99.90;;;;;;5133627;27;20035;-57
2023/04/07 07:25:35;;;;;;;23.27;17.92;;;7.90;99.90;;;;;;5133597;27;20039;-58
2023/04/07 07:28:01;;;;;;;22.45;17.60;;;7.90;99.90;;;;;;5133277;27;20082;-57
2023/04/07 07:30:26;;;;;;;20.92;17.00;;;7.90;99.90;;;;;;5132239;27;20049;-58
2023/04/07 07:32:53;;;;;;;21.13;16.70;;;8.10;99.90;;;;;;5133121;27;20039;-58
2023/04/07 07:35:20;;;;;;;22.15;17.83;;;8.10;99.90;;;;;;5133122;27;20567;-58
2023/04/07 07:37:46;;;;;;;23.10;17.85;;;8.10;99.90;;;;;;5115074;28;20039;-57
2023/04/07 07:40:12;;;;;;;20.10;15.70;;;8.20;99.90;;;;;;5114909;27;20110;-58
2023/04/07 07:42:38;;;;;;;19.40;16.00;;;8.20;99.90;;;;;;5114296;27;20461;-58
2023/04/07 07:45:04;;;;;;;21.27;17.15;;;8.20;99.90;;;;;;5114880;28;20039;-58
2023/04/07 07:47:31;;;;;;;20.00;15.73;;;8.20;99.90;;;;;;5114508;28;20063;-58
2023/04/07 07:49:57;;;;;;;21.35;16.50;;;8.30;99.90;;;;;;5133287;27;20035;-58
2023/04/07 07:52:23;;;;;;;21.20;17.63;;;8.30;99.90;;;;;;5133287;28;20058;-59
2023/04/07 07:54:50;;;;;;;18.83;15.73;;;8.30;99.90;;;;;;5133319;27;20130;-57
2023/04/07 07:57:15;;;;;;;20.77;15.82;;;8.30;99.90;;;;;;5132897;27;20093;-57
2023/04/07 07:59:41;;;;;;;19.52;15.40;;;8.40;99.90;;;;;;5133028;28;20495;-57
2023/04/07 08:02:08;;;;;;;17.23;15.20;;;8.40;99.90;;;;;;5132997;27;20118;-58
2023/04/07 08:04:35;;;;;;;18.35;15.73;;;8.40;99.90;;;;;;5133221;28;20103;-57
2023/04/07 08:07:01;;;;;;;20.30;15.30;;;8.40;99.90;;;;;;5133398;28;20039;-58
2023/04/07 08:09:27;;;;;;;19.63;15.63;;;8.50;99.90;;;;;;5132249;28;20451;-57
2023/04/07 08:11:52;;;;;;;18.40;14.23;;;8.40;99.90;;;;;;5114314;28;20051;-58
2023/04/07 08:14:18;;;;;;;17.48;14.45;;;8.40;99.90;;;;;;5133161;28;20057;-57
2023/04/07 08:16:44;;;;;;;17.83;14.27;;;8.40;99.90;;;;;;5132887;27;20118;-57
2023/04/07 08:19:11;;;;;;;16.52;14.25;;;8.50;99.90;;;;;;5136088;27;20046;-58
2023/04/07 08:21:36;;;;;;;17.98;15.43;;;8.50;99.90;;;;;;5153686;27;20047;-57
2023/04/07 08:24:03;;;;;;;17.55;15.45;;;8.50;99.90;;;;;;5134855;27;20112;-58
2023/04/07 08:26:29;;;;;;;18.38;14.63;;;8.50;99.90;;;;;;5153950;27;20121;-58
2023/04/07 08:28:54;;;;;;;17.65;14.40;;;8.50;99.90;;;;;;5153766;27;20122;-58
2023/04/07 08:31:21;;;;;;;18.38;14.27;;;8.60;99.90;;;;;;5153212;27;20075;-58
2023/04/07 08:33:46;;;;;;;19.60;14.75;;;8.50;99.90;;;;;;5135055;27;20045;-58
2023/04/07 08:36:12;;;;;;;18.38;14.10;;;8.60;99.90;;;;;;5153032;27;20042;-58
2023/04/07 08:38:37;;;;;;;15.48;13.05;;;8.60;99.90;;;;;;5134794;27;20091;-58
2023/04/07 08:41:09;;;;;;;17.08;14.27;;;8.60;99.90;;;;;;5134668;27;20067;-57
2023/04/07 08:43:38;;;;;;;18.08;14.70;;;8.70;99.90;;;;;;5138437;27;20026;-58
2023/04/07 08:46:04;;;;;;;16.80;14.07;;;8.70;99.90;;;;;;5157210;27;20073;-62
2023/04/07 08:48:34;;;;;;;16.23;13.27;;;8.80;99.90;;;;;;5157093;27;20062;-58
2023/04/07 08:51:09;;;;;;;18.98;13.52;;;8.80;99.90;;;;;;5138830;27;20047;-58
2023/04/07 08:53:46;;;;;;;15.80;13.73;;;8.90;99.90;;;;;;5157328;27;20070;-58
2023/04/07 08:56:13;;;;;;;17.65;14.80;;;8.90;99.90;;;;;;5157344;27;20043;-59
2023/04/07 08:58:39;;;;;;;20.58;15.38;;;8.90;99.90;;;;;;5157031;27;20038;-58
2023/04/07 09:01:05;;;;;;;20.80;16.23;;;8.90;99.90;;;;;;5138578;27;20114;-57
2023/04/07 09:03:33;;;;;;;19.27;15.27;;;9.10;99.90;;;;;;5156780;27;20030;-58
2023/04/07 09:06:02;;;;;;;22.13;17.42;;;9.10;99.90;;;;;;5138181;27;20430;-58
2023/04/07 09:08:27;;;;;;;23.25;17.50;;;9.20;99.90;;;;;;5138126;27;20041;-57
2023/04/07 09:10:55;;;;;;;21.55;17.67;;;9.30;99.90;;;;;;5156665;27;20027;-57
2023/04/07 09:13:20;;;;;;;21.88;18.83;;;9.30;99.90;;;;;;5156505;27;20519;-58
2023/04/07 09:15:46;;;;;;;23.15;17.38;;;9.20;99.90;;;;;;5156690;27;20035;-57
2023/04/07 09:18:13;;;;;;;21.92;17.52;;;9.30;99.90;;;;;;5156251;27;20468;-58
2023/04/07 09:21:00;;;;;;;20.30;17.20;;;9.50;99.90;;;;;;5138110;27;20133;-58
2023/04/07 09:23:39;;;;;;;26.15;17.77;;;9.50;99.90;;;;;;5156388;27;20071;-58
2023/04/07 09:26:21;;;;;;;19.98;16.95;;;9.60;99.90;;;;;;5156796;27;20070;-57
2023/04/07 09:28:58;;;;;;;20.20;16.67;;;9.70;99.90;;;;;;5156315;27;20035;-58
2023/04/07 09:31:50;;;;;;;24.20;17.75;;;9.70;99.90;;;;;;5156174;27;20396;-57
2023/04/07 09:34:37;;;;;;;19.13;17.13;;;9.80;99.90;;;;;;5156488;27;20035;-58
2023/04/07 09:37:05;;;;;;;20.90;17.15;;;9.90;99.90;;;;;;5137406;27;20111;-58
2023/04/07 09:39:31;;;;;;;18.85;16.63;;;9.90;99.90;;;;;;5137616;27;20085;-58
2023/04/07 09:41:57;;;;;;;21.80;18.58;;;9.90;99.90;;;;;;5156326;27;20058;-58
2023/04/07 09:44:24;;;;;;;25.92;18.25;;;10.00;99.90;;;;;;5120528;27;20057;-57
2023/04/07 09:46:52;;;;;;;18.50;16.48;;;10.00;99.90;;;;;;5156062;27;20107;-58
2023/04/07 09:49:19;;;;;;;24.02;17.70;;;10.00;99.90;;;;;;5156047;27;20034;-58
2023/04/07 09:51:59;;;;;;;21.15;17.48;;;10.00;99.90;;;;;;5156158;27;20043;-58
2023/04/07 09:54:35;;;;;;;22.30;16.00;;;9.90;99.90;;;;;;5154862;27;20077;-58
2023/04/07 09:57:02;;;;;;;22.10;15.93;;;9.90;99.90;;;;;;5155949;27;20109;-58
2023/04/07 09:59:29;;;;;;;19.92;14.90;;;9.90;99.90;;;;;;5155852;27;20035;-59
2023/04/07 10:01:55;;;;;;;16.58;14.10;;;9.90;99.90;;;;;;5136988;27;20122;-57
2023/04/07 10:04:22;;;;;;;19.35;14.80;;;9.90;99.90;;;;;;5155647;27;20075;-57
2023/04/07 10:06:49;;;;;;;18.35;14.75;;;10.00;99.90;;;;;;5137220;27;20107;-57
2023/04/07 10:09:16;;;;;;;16.15;13.57;;;10.00;99.90;;;;;;5155460;27;20096;-58
2023/04/07 10:11:43;;;;;;;17.67;15.75;;;10.10;99.90;;;;;;5136933;27;20034;-58
2023/04/07 10:14:10;;;;;;;20.25;14.55;;;10.10;99.90;;;;;;5136827;27;20042;-58
2023/04/07 10:16:37;;;;;;;15.82;12.45;;;10.10;99.90;;;;;;5155383;27;20034;-58
2023/04/07 10:19:05;;;;;;;13.93;10.90;;;10.10;99.90;;;;;;5136766;27;20485;-58
2023/04/07 10:21:34;;;;;;;14.50;11.52;;;10.00;99.90;;;;;;5155206;27;20045;-58
2023/04/07 10:24:23;;;;;;;12.73;10.23;;;10.10;99.90;;;;;;5155137;27;20035;-58
2023/04/07 10:27:00;;;;;;;10.10;8.88;;;10.20;99.90;;;;;;5050916;28;20107;-58
2023/04/07 10:29:33;;;;;;;11.07;8.93;;;10.20;99.90;;;;;;5051200;28;20451;-58
2023/04/07 10:32:01;;;;;;;11.32;9.43;;;10.10;99.90;;;;;;5043310;28;20100;-58
2023/04/07 10:34:54;;;;;;;12.75;9.23;;;10.20;99.90;;;;;;5031098;28;20073;-58
2023/04/07 10:37:21;;;;;;;11.00;9.00;;;10.50;99.90;;;;;;5040126;28;20056;-58
2023/04/07 10:39:48;;;;;;;11.32;8.48;;;10.50;99.90;;;;;;5050881;28;20120;-58
2023/04/07 10:42:38;;;;;;;9.82;8.82;;;10.50;99.90;;;;;;5047416;28;20527;-58
2023/04/07 10:45:08;;;;;;;12.13;10.20;;;10.50;99.90;;;;;;5014168;28;20099;-58
2023/04/07 10:48:08;;;;;;;12.77;10.18;;;10.50;99.90;;;;;;5035073;28;20045;-58
2023/04/07 10:50:35;;;;;;;13.23;11.25;;;10.50;99.90;;;;;;5011122;28;20168;-58
2023/04/07 10:53:09;;;;;;;14.95;11.60;;;10.50;99.90;;;;;;5010895;28;20125;-58
2023/04/07 10:55:42;;;;;;;14.25;12.00;;;10.60;99.90;;;;;;5010869;28;20443;-57
2023/04/07 10:58:22;;;;;;;13.32;11.93;;;10.70;99.90;;;;;;4994604;28;20104;-58
2023/04/07 11:01:00;;;;;;;;;;;10.90;99.90;;;;;;5011236;28;20392;-58
2023/04/07 11:03:27;;;;;;;14.02;11.30;;;11.00;99.90;;;;;;5042640;28;19930;-58
2023/04/07 11:06:06;;;;;;;14.90;12.05;;;11.20;99.90;;;;;;5110878;28;20031;-58
2023/04/07 11:08:38;;;;;;;14.70;11.82;;;11.40;99.90;;;;;;5094193;28;20050;-58
2023/04/07 11:11:08;;;;;;;14.32;11.50;;;11.70;99.90;;;;;;5110873;28;20043;-58
2023/04/07 11:13:47;;;;;;;13.27;11.52;;;11.70;99.90;;;;;;5110847;28;20606;-58
2023/04/07 11:16:15;;;;;;;14.65;11.15;;;11.70;99.90;;;;;;5110643;28;20038;-58
2023/04/07 11:18:41;;;;;;;14.13;10.65;;;11.70;99.90;;;;;;5110469;28;20155;-58
2023/04/07 11:21:07;;;;;;;12.57;10.55;;;11.70;99.90;;;;;;5097726;28;20092;-58
2023/04/07 11:23:41;;;;;;;11.20;9.75;;;11.70;99.90;;;;;;5090113;28;20417;-58
2023/04/07 11:26:09;;;;;;;11.23;9.63;;;11.60;99.90;;;;;;5090097;28;20040;-58
2023/04/07 11:28:45;;;;;;;12.10;9.98;;;11.70;99.90;;;;;;5114500;27;20393;-57
2023/04/07 11:31:10;;;;;;;11.23;9.68;;;11.60;99.90;;;;;;5115193;27;20043;-58
2023/04/07 11:33:37;;;;;;;13.52;9.50;;;11.80;99.90;;;;;;5114771;27;20066;-58
2023/04/07 11:36:05;;;;;;;10.98;8.73;;;11.90;99.90;;;;;;5133062;27;20469;-58
2023/04/07 11:38:37;;;;;;;11.18;9.70;;;12.00;99.90;;;;;;5133125;27;20035;-58
2023/04/07 11:41:14;;;;;;;11.55;9.02;;;12.10;99.90;;;;;;5133049;27;20144;-58
2023/04/07 11:43:42;;;;;;;11.60;8.23;;;12.10;99.90;;;;;;5133482;27;20043;-58
2023/04/07 11:46:13;;;;;;;9.70;8.73;;;12.20;99.90;;;;;;5133212;27;20035;-58
2023/04/07 11:48:41;;;;;;;10.73;9.00;;;12.20;99.90;;;;;;5132953;27;20576;-58
2023/04/07 11:51:18;;;;;;;13.52;8.13;;;12.30;99.90;;;;;;5144225;27;20100;-58
2023/04/07 11:53:44;;;;;;;9.40;8.10;;;12.30;99.90;;;;;;5135394;27;20114;-58
2023/04/07 11:56:17;;;;;;;12.07;8.55;;;12.20;99.90;;;;;;5153669;27;20074;-58
2023/04/07 11:58:50;;;;;;;8.55;7.45;;;12.10;99.90;;;;;;5153890;27;20043;-58
2023/04/07 12:01:16;;;;;;;9.10;7.07;;;12.20;99.90;;;;;;5153594;27;20031;-58
2023/04/07 12:04:00;;;;;;;8.98;7.85;;;12.10;99.90;;;;;;5153558;27;20067;-58
2023/04/07 12:06:37;;;;;;;8.13;7.30;;;12.20;99.90;;;;;;5153637;27;20031;-58
2023/04/07 12:09:08;;;;;;;10.38;7.70;;;12.30;99.90;;;;;;5153625;27;20049;-58
2023/04/07 12:11:35;;;;;;;8.52;7.57;;;12.40;99.90;;;;;;5134940;27;20039;-58
2023/04/07 12:14:03;;;;;;;9.20;8.00;;;12.50;99.90;;;;;;5153593;27;20110;-58
2023/04/07 12:16:29;;;;;;;9.52;8.00;;;12.70;99.90;;;;;;5153669;27;20047;-58
2023/04/07 12:18:56;;;;;;;11.07;8.75;;;12.90;99.90;;;;;;5157275;27;20062;-58
2023/04/07 12:21:23;;;;;;;10.02;7.85;;;13.00;99.90;;;;;;5145803;27;20071;-58
2023/04/07 12:23:48;;;;;;;9.35;8.23;;;13.10;99.90;;;;;;5136795;27;20106;-59
2023/04/07 12:26:14;;;;;;;9.48;8.48;;;13.20;99.90;;;;;;5136816;27;20172;-57
2023/04/07 12:28:40;;;;;;;9.65;7.82;;;13.20;99.90;;;;;;5136526;27;20032;-58
2023/04/07 12:31:05;;;;;;;8.95;8.02;;;13.60;99.90;;;;;;5118356;27;20118;-58
2023/04/07 12:33:31;;;;;;;8.85;7.95;;;14.00;99.90;;;;;;5136729;27;20031;-58
2023/04/07 12:35:57;;;;;;;8.20;7.40;;;14.20;99.90;;;;;;5136728;27;20071;-58
2023/04/07 12:38:23;;;;;;;8.63;7.72;;;14.30;99.90;;;;;;5136534;27;20042;-59